Time;durP1;ratioP1;P1;durP2;ratioP2;P2;SDS_P1;SDS_P2;PMS_P1;PMS_P2;Temp;Humidity;BMP_temperature;BMP_pressure;BME280_temperature;BME280_humidity;BME280_pressure;Samples;Min_cycle;Max_cycle;Signal;HPM_P1;HPM_P2
2023/10/22 00:00:48;;;;;;;;;;;11.50;99.90;;;10.56;100.00;96605.25;5026946;28;1536;-73
2023/10/22 00:03:15;;;;;;;;;;;11.50;99.90;;;10.57;100.00;96615.56;5041735;28;1572;-74
2023/10/22 00:05:42;;;;;;;;;;;11.50;99.90;;;10.55;100.00;96614.81;5028850;28;1786;-73
2023/10/22 00:08:09;;;;;;;;;;;11.50;99.90;;;10.61;100.00;96611.03;5025491;28;1483;-72
2023/10/22 00:10:36;;;;;;;;;;;11.60;99.90;;;10.57;100.00;96607.78;5042195;28;1825;-73
2023/10/22 00:13:03;;;;;;;;;;;11.60;99.90;;;10.57;100.00;96610.38;5025642;28;1992;-74
2023/10/22 00:15:30;;;;;;;;;;;11.50;99.90;;;10.55;100.00;96614.81;5021535;28;1758;-72
2023/10/22 00:17:56;;;;;;;;;;;11.60;99.90;;;10.51;100.00;96610.72;5025445;28;1583;-74
2023/10/22 00:20:23;;;;;;;;;;;11.50;99.90;;;10.48;100.00;96613.50;5042146;28;1436;-73
2023/10/22 00:22:51;;;;;;;;;;;11.50;99.90;;;10.45;100.00;96611.09;5041904;28;1468;-73
2023/10/22 00:25:18;;;;;;;;;;;11.50;99.90;;;10.37;100.00;96616.69;5041007;28;1989;-74
2023/10/22 00:27:46;;;;;;;;;;;11.50;99.90;;;10.24;100.00;96626.91;5040497;28;1526;-73
2023/10/22 00:30:13;;;;;;;;;;;11.40;99.90;;;10.25;100.00;96627.75;5041038;28;1606;-74
2023/10/22 00:32:40;;;;;;;;;;;;;;;10.17;100.00;96625.59;5042675;28;1902;-71
2023/10/22 00:35:07;;;;;;;;;;;11.30;99.90;;;10.15;100.00;96629.16;5043574;28;1583;-73
2023/10/22 00:37:34;;;;;;;;;;;11.20;99.90;;;10.05;100.00;96634.88;5024249;28;1590;-73
2023/10/22 00:40:03;;;;;;;;;;;11.20;99.90;;;10.01;100.00;96632.53;5035630;28;1554;-73
2023/10/22 00:42:30;;;;;;;;;;;11.10;99.90;;;10.01;100.00;96637.72;5024174;28;2006;-73
2023/10/22 00:44:57;;;;;;;;;;;11.10;99.90;;;10.00;100.00;96636.91;5037339;28;1557;-74
2023/10/22 00:47:24;;;;;;;;;;;11.10;99.90;;;10.01;100.00;96636.00;5023461;28;1827;-74
2023/10/22 00:49:51;;;;;;;;;;;11.00;99.90;;;9.94;100.00;96637.22;5039603;28;1613;-73
2023/10/22 00:52:18;;;;;;;;;;;11.00;99.90;;;10.00;100.00;96639.47;5025017;28;1918;-74
2023/10/22 00:54:46;;;;;;;;;;;11.00;99.90;;;10.00;100.00;96641.25;5025320;28;1547;-73
2023/10/22 00:57:13;;;;;;;;;;;11.00;99.90;;;10.01;100.00;96642.91;5029172;28;1427;-72
2023/10/22 00:59:42;;;;;;;;;;;11.00;99.90;;;9.97;100.00;96644.03;5039971;28;1557;-73
2023/10/22 01:02:10;;;;;;;;;;;10.90;99.90;;;9.92;100.00;96651.19;5038143;28;1646;-73
2023/10/22 01:04:37;;;;;;;;;;;11.00;99.90;;;9.81;100.00;96639.66;5038945;28;1554;-73
2023/10/22 01:07:05;;;;;;;;;;;10.90;99.90;;;9.79;100.00;96651.03;5043211;28;1584;-74
2023/10/22 01:09:32;;;;;;;;;;;10.90;99.90;;;9.86;100.00;96644.59;5041589;28;1523;-73
2023/10/22 01:12:02;;;;;;;;;;;10.90;99.90;;;9.85;100.00;96645.50;5039788;28;1567;-73
2023/10/22 01:14:29;;;;;;;;;;;10.90;99.90;;;9.83;100.00;96647.38;5035717;28;1910;-74
2023/10/22 01:16:56;;;;;;;;;;;10.90;99.90;;;9.81;100.00;96651.78;5039657;28;1561;-73
2023/10/22 01:19:23;;;;;;;;;;;10.90;99.90;;;9.90;100.00;96647.84;5020933;28;1572;-73
2023/10/22 01:21:51;;;;;;;;;;;10.80;99.90;;;9.90;100.00;96659.06;5005158;28;1512;-73
2023/10/22 01:24:18;;;;;;;;;;;10.80;99.90;;;9.78;100.00;96657.13;5042252;28;1586;-73
2023/10/22 01:26:45;;;;;;;;;;;10.80;99.90;;;9.77;100.00;96658.06;5038911;28;1704;-72
2023/10/22 01:29:14;;;;;;;;;;;10.80;99.90;;;9.79;100.00;96662.25;5026014;28;1494;-74
2023/10/22 01:31:41;;;;;;;;;;;10.70;99.90;;;9.69;100.00;96661.03;5040810;28;1608;-72
2023/10/22 01:34:08;;;;;;;;;;;10.70;99.90;;;9.63;100.00;96657.03;5040048;28;1906;-73
2023/10/22 01:36:35;;;;;;;;;;;10.70;99.90;;;9.72;100.00;96666.09;5039359;28;1502;-73
2023/10/22 01:39:03;;;;;;;;;;;10.70;99.90;;;9.59;100.00;96660.72;5043551;28;1700;-72
2023/10/22 01:41:30;;;;;;;;;;;10.70;99.90;;;9.71;100.00;96666.97;5041724;28;1493;-74
2023/10/22 01:43:58;;;;;;;;;;;10.60;99.90;;;9.62;100.00;96670.94;5037192;28;1600;-73
2023/10/22 01:46:25;;;;;;;;;;;10.60;99.90;;;9.61;100.00;96681.38;5023397;28;1579;-73
2023/10/22 01:48:52;;;;;;;;;;;10.60;99.90;;;9.52;100.00;96669.72;5025338;28;1601;-74
2023/10/22 01:51:19;;;;;;;;;;;10.60;99.90;;;9.60;100.00;96675.34;5022594;28;1551;-73
2023/10/22 01:53:46;;;;;;;;;;;10.50;99.90;;;9.62;100.00;96678.69;5041154;28;1987;-73
2023/10/22 01:56:14;;;;;;;;;;;10.60;99.90;;;9.50;100.00;96668.97;5039933;28;1608;-73
2023/10/22 01:58:43;;;;;;;;;;;10.50;99.90;;;9.55;100.00;96674.75;5022287;28;1575;-72
2023/10/22 02:01:10;;;;;;;;;;;10.50;99.90;;;9.45;100.00;96681.34;5023787;28;1712;-74
2023/10/22 02:03:37;;;;;;;;;;;10.50;99.90;;;9.50;100.00;96683.69;5039829;28;1754;-73
2023/10/22 02:06:12;;;;;;;;;;;10.50;99.90;;;9.39;100.00;96679.88;5021047;28;1640;-71
2023/10/22 02:08:39;;;;;;;;;;;10.50;99.90;;;9.36;100.00;96685.25;5027077;28;1426;-71
2023/10/22 02:11:07;;;;;;;;;;;10.40;99.90;;;9.36;100.00;96687.81;5021588;28;1883;-73
2023/10/22 02:13:34;;;;;;;;;;;10.40;99.90;;;9.31;100.00;96676.06;5004759;28;1957;-73
2023/10/22 02:16:01;;;;;;;;;;;10.30;99.90;;;9.30;100.00;96677.78;5012149;28;1716;-73
2023/10/22 02:18:28;;;;;;;;;;;10.40;99.90;;;9.28;100.00;96682.19;5040485;28;1758;-74
2023/10/22 02:20:59;;;;;;;;;;;10.30;99.90;;;9.24;100.00;96675.53;5039133;28;1260;-73
2023/10/22 02:23:27;;;;;;;;;;;10.30;99.90;;;9.31;100.00;96681.22;5019557;28;1779;-73
2023/10/22 02:25:54;;;;;;;;;;;10.30;99.90;;;9.31;100.00;96678.63;5023609;28;1811;-73
2023/10/22 02:28:21;;;;;;;;;;;10.30;99.90;;;9.29;100.00;96689.06;5011231;28;1578;-73
2023/10/22 02:30:48;;;;;;;;;;;10.30;99.90;;;9.34;100.00;96692.25;5036271;28;1543;-74
2023/10/22 02:33:15;;;;;;;;;;;10.30;99.90;;;9.30;100.00;96689.91;5024638;28;1906;-74
2023/10/22 02:35:43;;;;;;;;;;;10.30;99.90;;;9.31;100.00;96699.34;5039994;28;1480;-74
2023/10/22 02:38:15;;;;;;;;;;;10.30;99.90;;;9.35;100.00;96699.13;5023827;28;1560;-73
2023/10/22 02:40:48;;;;;;;;;;;10.30;99.90;;;9.35;100.00;96701.72;5036351;28;1609;-74
2023/10/22 02:43:16;;;;;;;;;;;10.20;99.90;;;9.31;100.00;96695.00;5038889;28;1571;-74
2023/10/22 02:45:53;;;;;;;;;;;10.30;99.90;;;9.31;100.00;96689.81;5040940;28;1546;-73
2023/10/22 02:48:20;;;;;;;;;;;10.30;99.90;;;9.35;100.00;96688.75;5041651;28;1502;-74
2023/10/22 02:50:47;;;;;;;;;;;10.30;99.90;;;9.42;100.00;96690.09;5023212;28;1567;-74
2023/10/22 02:53:16;;;;;;;;;;;10.30;99.90;;;9.27;100.00;96679.72;5037018;28;1903;-73
2023/10/22 02:55:43;;;;;;;;;;;10.30;99.90;;;9.28;100.00;96692.56;5021827;28;1547;-73
2023/10/22 02:58:10;;;;;;;;;;;10.30;99.90;;;9.29;100.00;96680.47;5037973;28;1487;-72
2023/10/22 03:00:37;;;;;;;;;;;10.30;99.90;;;9.37;100.00;96701.59;5019372;28;1749;-72
2023/10/22 03:03:04;;;;;;;;;;;10.30;99.90;;;9.35;100.00;96690.50;5022772;28;1803;-74
2023/10/22 03:05:32;;;;;;;;;;;10.30;99.90;;;9.27;100.00;96695.25;5039969;28;1451;-74
2023/10/22 03:08:00;;;;;;;;;;;10.30;99.90;;;9.21;100.00;96686.03;5039213;28;1566;-75
2023/10/22 03:10:27;;;;;;;;;;;10.30;99.90;;;9.27;100.00;96690.91;5031815;28;1642;-73
2023/10/22 03:12:54;;;;;;;;;;;10.20;99.90;;;9.51;100.00;96691.38;5038507;28;1969;-75
2023/10/22 03:15:21;;;;;;;;;;;10.30;99.90;;;9.52;100.00;96695.63;5037871;28;1645;-75
2023/10/22 03:17:52;;;;;;;;;;;10.30;99.90;;;9.33;100.00;96695.75;5036237;28;1701;-75
2023/10/22 03:20:22;;;;;;;;;;;10.30;99.90;;;9.31;100.00;96684.66;5038208;28;1788;-75
2023/10/22 03:22:50;;;;;;;;;;;10.30;99.90;;;9.42;100.00;96695.28;5024450;28;1594;-75
2023/10/22 03:25:18;;;;;;;;;;;10.30;99.90;;;9.28;100.00;96702.91;5039770;28;1661;-76
2023/10/22 03:27:45;;;;;;;;;;;10.20;99.90;;;9.40;100.00;96698.88;5025853;28;1531;-75
2023/10/22 03:30:13;;;;;;;;;;;10.20;99.90;;;9.39;100.00;96704.97;5041464;28;1509;-75
2023/10/22 03:32:40;;;;;;;;;;;10.20;99.90;;;9.31;100.00;96705.38;5029777;28;1806;-75
2023/10/22 03:35:08;;;;;;;;;;;10.20;99.90;;;9.31;100.00;96720.06;5026807;28;1973;-75
2023/10/22 03:37:35;;;;;;;;;;;10.20;99.90;;;9.37;100.00;96704.19;5025986;28;1578;-75
2023/10/22 03:40:07;;;;;;;;;;;10.30;99.90;;;9.30;100.00;96719.22;5026406;28;1594;-72
2023/10/22 03:42:33;;;;;;;;;;;10.20;99.90;;;9.23;100.00;96709.25;5046490;28;1391;-75
2023/10/22 03:45:01;;;;;;;;;;;;;;;9.43;100.00;96712.50;5045644;28;1547;-75
2023/10/22 03:47:28;;;;;;;;;;;10.30;99.90;;;9.38;100.00;96722.25;5040011;28;1566;-75
2023/10/22 03:49:55;;;;;;;;;;;10.20;99.90;;;9.34;100.00;96731.09;5042351;28;1534;-75
2023/10/22 03:52:25;;;;;;;;;;;10.30;99.90;;;9.36;100.00;96737.03;5041555;28;1526;-75
2023/10/22 03:54:58;;;;;;;;;;;10.20;99.90;;;9.42;100.00;96733.31;5043733;28;1906;-72
2023/10/22 03:57:26;;;;;;;;;;;10.20;99.90;;;9.38;100.00;96735.22;5042782;28;1560;-74
2023/10/22 03:59:53;;;;;;;;;;;10.20;99.90;;;9.34;100.00;96720.72;5044157;28;1624;-75
2023/10/22 04:02:20;;;;;;;;;;;10.30;99.90;;;9.43;100.00;96740.16;5025755;28;1833;-75
2023/10/22 04:04:48;;;;;;;;;;;10.20;99.90;;;9.32;100.00;96745.88;5041219;28;1549;-75
2023/10/22 04:07:15;;;;;;;;;;;10.20;99.90;;;9.21;100.00;96754.19;5044136;28;1609;-73
2023/10/22 04:09:42;;;;;;;;;;;10.20;99.90;;;9.32;100.00;96742.44;5043562;28;1569;-74
2023/10/22 04:12:13;;;;;;;;;;;10.20;99.90;;;9.31;100.00;96762.34;5043066;28;1592;-76
2023/10/22 04:14:42;;;;;;;;;;;10.10;99.90;;;9.24;100.00;96757.53;5042740;28;1899;-75
2023/10/22 04:17:09;;;;;;;;;;;10.20;99.90;;;9.23;100.00;96748.94;5043446;28;1908;-75
2023/10/22 04:19:36;;;;;;;;;;;10.20;99.90;;;9.28;100.00;96762.47;5044259;28;1582;-74
2023/10/22 04:22:03;;;;;;;;;;;10.10;99.90;;;9.33;100.00;96757.09;5041501;28;1513;-75
2023/10/22 04:24:30;;;;;;;;;;;10.10;99.90;;;9.27;100.00;96758.22;5042712;28;1533;-75
2023/10/22 04:26:57;;;;;;;;;;;10.10;99.90;;;9.23;100.00;96766.22;5039855;28;1292;-74
2023/10/22 04:29:24;;;;;;;;;;;10.20;99.90;;;9.20;100.00;96768.03;5040543;28;1431;-73
2023/10/22 04:31:51;;;;;;;;;;;10.10;99.90;;;9.24;100.00;96768.75;5025076;28;1471;-74
2023/10/22 04:34:19;;;;;;;;;;;10.10;99.90;;;9.20;100.00;96780.16;5041234;28;1979;-75
2023/10/22 04:36:46;;;;;;;;;;;10.10;99.90;;;9.27;100.00;96775.53;5041324;28;1607;-74
2023/10/22 04:39:12;;;;;;;;;;;10.10;99.90;;;9.20;100.00;96786.16;5045343;28;2015;-75
2023/10/22 04:41:40;;;;;;;;;;;10.10;99.90;;;9.18;100.00;96777.63;5028841;28;1577;-75
2023/10/22 04:44:07;;;;;;;;;;;10.10;99.90;;;9.26;100.00;96790.22;5039337;28;1483;-74
2023/10/22 04:46:35;;;;;;;;;;;10.10;99.90;;;9.19;100.00;96781.06;5043274;28;1521;-74
2023/10/22 04:49:03;;;;;;;;;;;10.10;99.90;;;9.21;100.00;96787.88;5044172;28;1852;-75
2023/10/22 04:51:31;;;;;;;;;;;10.10;99.90;;;9.20;100.00;96780.16;5022655;28;1488;-74
2023/10/22 04:53:58;;;;;;;;;;;10.10;99.90;;;9.13;100.00;96784.81;5022169;28;1902;-75
2023/10/22 04:56:26;;;;;;;;;;;10.00;99.90;;;9.09;100.00;96788.44;5040492;28;1526;-75
2023/10/22 04:58:52;;;;;;;;;;;10.10;99.90;;;9.11;100.00;96784.03;5025032;28;1647;-75
2023/10/22 05:01:20;;;;;;;;;;;10.00;99.90;;;9.14;100.00;96798.59;5023992;28;2363;-75
2023/10/22 05:03:47;;;;;;;;;;;10.00;99.90;;;9.10;100.00;96803.09;5039246;28;1420;-75
2023/10/22 05:06:14;;;;;;;;;;;10.10;99.90;;;9.11;100.00;96812.53;5036436;28;1447;-75
2023/10/22 05:08:41;;;;;;;;;;;10.00;99.90;;;9.15;100.00;96813.22;5042968;28;1543;-74
2023/10/22 05:11:15;;;;;;;;;;;10.00;99.90;;;9.15;100.00;96814.06;5038708;28;1430;-75
2023/10/22 05:13:43;;;;;;;;;;;10.00;99.90;;;9.20;100.00;96816.41;5026655;28;1898;-73
2023/10/22 05:16:10;;;;;;;;;;;10.10;99.90;;;9.16;100.00;96810.53;5029347;28;1683;-74
2023/10/22 05:18:38;;;;;;;;;;;10.10;99.90;;;9.07;100.00;96804.97;5044470;28;1523;-72
2023/10/22 05:21:06;;;;;;;;;;;10.10;99.90;;;9.03;100.00;96803.44;5040417;28;1534;-75
2023/10/22 05:23:34;;;;;;;;;;;10.10;99.90;;;8.96;100.00;96810.66;5022195;28;1518;-75
2023/10/22 05:26:08;;;;;;;;;;;10.00;99.90;;;8.98;100.00;96814.03;5026469;28;1861;-74
2023/10/22 05:28:35;;;;;;;;;;;10.00;99.90;;;9.09;100.00;96821.28;5040684;28;1392;-75
2023/10/22 05:31:17;;;;;;;;;;;9.90;99.90;;;9.00;100.00;96825.16;5021173;28;1528;-75
2023/10/22 05:33:45;;;;;;;;;;;9.90;99.90;;;9.05;100.00;96824.91;5037827;28;1895;-73
2023/10/22 05:36:19;;;;;;;;;;;9.90;99.90;;;9.06;100.00;96826.63;5010275;28;1545;-74
2023/10/22 05:38:48;;;;;;;;;;;9.90;99.90;;;9.02;100.00;96832.84;5041139;28;1529;-74
2023/10/22 05:41:22;;;;;;;;;;;9.90;99.90;;;9.10;100.00;96843.66;5027494;28;1618;-75
2023/10/22 05:43:51;;;;;;;;;;;9.90;99.90;;;9.10;100.00;96841.06;5023179;28;1606;-72
2023/10/22 05:46:18;;;;;;;;;;;9.90;99.90;;;9.10;100.00;96833.28;5040013;28;1570;-75
2023/10/22 05:48:45;;;;;;;;;;;10.00;99.90;;;9.09;100.00;96832.47;5008391;28;1554;-74
2023/10/22 05:51:13;;;;;;;;;;;10.00;99.90;;;9.12;100.00;96834.94;5039081;28;1522;-74
2023/10/22 05:53:40;;;;;;;;;;;10.00;99.90;;;9.10;100.00;96843.66;5006692;28;1969;-74
2023/10/22 05:56:07;;;;;;;;;;;10.10;99.90;;;9.17;100.00;96845.88;5024320;28;1528;-74
2023/10/22 05:58:34;;;;;;;;;;;10.10;99.90;;;9.12;100.00;96841.81;5042642;28;1589;-75
2023/10/22 06:01:02;;;;;;;;;;;10.10;99.90;;;9.20;100.00;96853.50;5025013;28;1527;-74
2023/10/22 06:03:29;;;;;;;;;;;10.10;99.90;;;9.22;100.00;96853.44;5024952;28;1586;-75
2023/10/22 06:05:56;;;;;;;;;;;10.10;99.90;;;9.12;100.00;96863.41;5037191;28;1514;-73
2023/10/22 06:08:23;;;;;;;;;;;10.00;99.90;;;9.23;100.00;96869.78;5037876;28;1585;-75
2023/10/22 06:10:50;;;;;;;;;;;10.10;99.90;;;9.21;100.00;96859.50;5022435;28;1346;-75
2023/10/22 06:13:17;;;;;;;;;;;10.00;99.90;;;9.13;100.00;96862.47;5039074;28;1649;-74
2023/10/22 06:15:45;;;;;;;;;;;10.00;99.90;;;9.23;100.00;96864.63;5036836;28;1993;-75
2023/10/22 06:18:12;;;;;;;;;;;10.10;99.90;;;9.28;100.00;96878.19;5022410;28;1627;-75
2023/10/22 06:20:40;;;;;;;;;;;10.00;99.90;;;9.23;100.00;96877.56;5042295;28;1439;-75
2023/10/22 06:23:08;;;;;;;;;;;10.10;99.90;;;9.30;100.00;96891.88;5040721;28;1558;-74
2023/10/22 06:25:35;;;;;;;;;;;10.10;99.90;;;9.30;100.00;96884.94;5038063;28;1607;-75
2023/10/22 06:28:02;;;;;;;;;;;10.20;99.90;;;9.33;100.00;96889.16;5040487;28;1534;-74
2023/10/22 06:30:29;;;;;;;;;;;10.20;99.90;;;9.45;100.00;96900.69;5042737;28;1538;-74
2023/10/22 06:32:57;;;;;;;;;;;10.30;99.90;;;9.46;100.00;96897.16;5029272;28;1524;-74
2023/10/22 06:35:28;;;;;;;;;;;10.30;99.90;;;9.53;100.00;96904.53;5019066;28;1938;-75
2023/10/22 06:37:56;;;;;;;;;;;10.30;99.90;;;9.51;100.00;96919.34;5038976;28;1568;-74
2023/10/22 06:40:23;;;;;;;;;;;10.30;99.90;;;9.53;100.00;96911.50;5036806;28;1546;-75
2023/10/22 06:42:51;;;;;;;;;;;10.40;99.90;;;9.50;100.00;96911.66;5007039;28;1612;-75
2023/10/22 06:45:18;;;;;;;;;;;10.40;99.90;;;9.48;100.00;96922.06;5035956;28;1395;-74
2023/10/22 06:47:48;;;;;;;;;;;10.40;99.90;;;9.58;100.00;96931.09;5030068;28;1539;-74
2023/10/22 06:50:15;;;;;;;;;;;10.40;99.90;;;9.63;100.00;96929.09;5025112;28;1580;-75
2023/10/22 06:52:42;;;;;;;;;;;10.40;99.90;;;9.54;100.00;96926.13;5027082;28;1492;-74
2023/10/22 06:55:09;;;;;;;;;;;10.50;99.90;;;9.61;100.00;96930.94;5034650;28;1987;-74
2023/10/22 06:57:36;;;;;;;;;;;10.50;99.90;;;9.66;100.00;96929.88;5019740;28;1499;-75
2023/10/22 07:00:04;;;;;;;;;;;10.60;99.90;;;9.79;100.00;96933.53;5031633;28;1593;-74
2023/10/22 07:02:33;;;;;;;;;;;10.60;99.90;;;9.73;100.00;96932.06;5045643;28;1565;-75
2023/10/22 07:05:00;;;;;;;;;;;10.70;99.90;;;9.83;100.00;96942.84;5016037;28;1499;-75
2023/10/22 07:07:28;;;;;;;;;;;10.70;99.90;;;9.80;100.00;96943.81;5025096;28;1367;-75
2023/10/22 07:09:55;;;;;;;;;;;10.70;99.90;;;9.82;100.00;96944.56;5023256;28;1530;-74
2023/10/22 07:12:24;;;;;;;;;;;10.70;99.90;;;9.78;100.00;96950.00;5022284;28;1437;-75
2023/10/22 07:14:51;;;;;;;;;;;10.70;99.90;;;9.80;100.00;96954.19;5014334;28;1906;-75
2023/10/22 07:17:17;;;;;;;;;;;10.80;99.90;;;9.84;100.00;96958.31;5029786;28;1255;-75
2023/10/22 07:19:45;;;;;;;;;;;10.70;99.90;;;9.90;100.00;96959.78;5026009;28;1255;-75
2023/10/22 07:22:11;;;;;;;;;;;10.70;99.90;;;9.87;100.00;96954.72;5042355;28;1343;-74
2023/10/22 07:24:38;;;;;;;;;;;10.80;99.90;;;9.92;100.00;96965.72;5030174;28;1119;-71
2023/10/22 07:27:06;;;;;;;;;;;10.80;99.90;;;9.91;100.00;96960.59;5042442;28;1138;-74
2023/10/22 07:29:32;;;;;;;;;;;10.80;99.90;;;10.01;100.00;96972.19;5025137;28;1036;-75
2023/10/22 07:31:59;;;;;;;;;;;10.80;99.90;;;9.92;100.00;96957.94;5028597;28;1375;-75
2023/10/22 07:34:28;;;;;;;;;;;10.80;99.90;;;9.98;100.00;96969.75;5024442;28;1969;-75
2023/10/22 07:36:54;;;;;;;;;;;10.80;99.90;;;9.97;100.00;96974.09;5027888;28;1230;-75
2023/10/22 07:39:21;;;;;;;;;;;10.80;99.90;;;9.94;100.00;96968.22;5024104;28;1693;-75
2023/10/22 07:41:48;;;;;;;;;;;10.80;99.90;;;9.96;100.00;96980.19;5040221;28;1511;-75
2023/10/22 07:44:15;;;;;;;;;;;10.80;99.90;;;9.96;100.00;96971.56;5024731;28;1386;-75
2023/10/22 07:46:42;;;;;;;;;;;10.80;99.90;;;9.93;100.00;96969.97;5024459;28;1068;-75
2023/10/22 07:49:11;;;;;;;;;;;10.90;99.90;;;10.09;100.00;96982.19;5025478;28;1051;-75
2023/10/22 07:51:37;;;;;;;;;;;10.90;99.90;;;9.94;100.00;96965.63;5043617;28;1350;-76
2023/10/22 07:54:05;;;;;;;;;;;10.90;99.90;;;9.98;100.00;96967.97;5035879;28;1540;-75
2023/10/22 07:56:32;;;;;;;;;;;10.90;99.90;;;9.97;100.00;96975.84;5023061;28;1903;-75
2023/10/22 07:58:59;;;;;;;;;;;10.90;99.90;;;9.98;100.00;96988.72;5039514;28;940;-74
2023/10/22 08:01:26;;;;;;;;;;;10.90;99.90;;;9.95;100.00;96988.06;5014925;28;1343;-75
2023/10/22 08:03:53;;;;;;;;;;;10.90;99.90;;;9.89;100.00;96993.53;5043223;28;1492;-76
2023/10/22 08:06:20;;;;;;;;;;;10.80;99.90;;;9.91;100.00;96995.13;5043282;28;1619;-76
2023/10/22 08:08:47;;;;;;;;;;;10.80;99.90;;;9.90;100.00;96998.66;5043148;28;2193;-74
2023/10/22 08:11:14;;;;;;;;;;;10.80;99.90;;;9.99;100.00;97000.78;5043448;28;1451;-77
2023/10/22 08:13:41;;;;;;;;;;;10.80;99.90;;;9.92;100.00;97014.97;5024041;28;2080;-75
2023/10/22 08:16:08;;;;;;;;;;;10.80;99.90;;;9.95;100.00;97004.44;5042061;28;1910;-74
2023/10/22 08:18:35;;;;;;;;;;;10.90;99.90;;;10.14;100.00;97000.94;5029919;28;1001;-75
2023/10/22 08:21:03;;;;;;;;;;;11.10;99.90;;;10.18;100.00;97003.28;5036655;28;1342;-75
2023/10/22 08:23:31;;;;;;;;;;;11.10;99.90;;;10.34;100.00;97021.56;5024305;28;1120;-76
2023/10/22 08:25:58;;;;;;;;;;;11.10;99.90;;;10.45;100.00;97002.84;5013449;28;1475;-77
2023/10/22 08:28:25;;;;;;;;;;;11.20;99.90;;;10.44;100.00;96999.41;5041881;28;1072;-77
2023/10/22 08:30:52;;;;;;;;;;;11.30;99.90;;;10.41;100.00;97019.50;5022346;28;1203;-74
2023/10/22 08:33:20;;;;;;;;;;;11.20;99.90;;;10.35;100.00;97018.03;5022527;28;1377;-76
2023/10/22 08:35:47;;;;;;;;;;;11.40;99.90;;;10.55;100.00;97008.41;5037619;28;1973;-76
2023/10/22 08:38:15;;;;;;;;;;;11.40;99.90;;;10.52;100.00;97032.75;5021484;28;1009;-72
2023/10/22 08:40:42;;;;;;;;;;;11.40;99.90;;;10.51;100.00;97005.13;5026108;28;1364;-75
2023/10/22 08:43:32;;;;;;;;;;;11.40;99.90;;;10.66;100.00;97006.09;5043045;28;1449;-76
2023/10/22 08:45:58;;;;;;;;;;;11.40;99.90;;;10.66;100.00;97027.69;5026533;28;1185;-75
2023/10/22 08:48:26;;;;;;;;;;;11.40;99.90;;;10.87;100.00;97030.09;5024290;28;1043;-73
2023/10/22 08:50:54;;;;;;;;;;;11.70;99.90;;;11.11;100.00;97030.56;5028513;28;1425;-75
2023/10/22 08:53:21;;;;;;;;;;;11.70;99.90;;;11.06;100.00;97027.34;5034244;28;1375;-74
2023/10/22 08:55:48;;;;;;;;;;;11.80;99.90;;;11.05;100.00;97023.09;5021533;28;2015;-76
2023/10/22 08:58:19;;;;;;;;;;;11.80;99.90;;;11.02;100.00;97021.50;5042127;28;1209;-76
2023/10/22 09:00:48;;;;;;;;;;;11.90;99.90;;;11.21;100.00;97033.50;5020741;28;1825;-74
2023/10/22 09:03:20;;;;;;;;;;;11.90;99.90;;;11.41;100.00;97035.84;5036565;28;1569;-75
2023/10/22 09:05:48;;;;;;;;;;;12.00;99.90;;;11.23;100.00;97031.66;5031337;28;1095;-74
2023/10/22 09:08:15;;;;;;;;;;;12.00;99.90;;;11.30;100.00;97035.59;5020927;28;1024;-76
2023/10/22 09:10:43;;;;;;;;;;;12.10;99.90;;;11.24;100.00;97046.31;5006448;28;1014;-77
2023/10/22 09:13:11;;;;;;;;;;;12.10;99.90;;;11.25;100.00;97035.84;5040708;28;1590;-75
2023/10/22 09:15:40;;;;;;;;;;;12.10;99.90;;;11.45;100.00;97026.13;5028934;28;1981;-75
2023/10/22 09:18:07;;;;;;;;;;;12.10;99.90;;;11.54;100.00;97030.84;5025989;28;1153;-74
2023/10/22 09:20:35;;;;;;;;;;;12.20;99.90;;;11.64;100.00;97037.19;5025198;28;1361;-75
2023/10/22 09:23:14;;;;;;;;;;;12.40;99.90;;;11.73;100.00;97044.47;5040803;28;1367;-75
2023/10/22 09:25:42;;;;;;;;;;;12.40;99.90;;;11.68;100.00;97048.25;5039612;28;1465;-74
2023/10/22 09:28:26;;;;;;;;;;;12.40;99.90;;;11.71;100.00;97053.28;5041713;28;1016;-75
2023/10/22 09:31:04;;;;;;;;;;;12.40;99.90;;;11.95;100.00;97051.13;5025559;28;1685;-76
2023/10/22 09:33:39;;;;;;;;;;;12.40;99.90;;;11.62;100.00;97062.41;5041648;28;1326;-76
2023/10/22 09:36:08;;;;;;;;;;;12.50;99.90;;;11.99;100.00;97059.56;5023200;28;1994;-73
2023/10/22 09:38:46;;;;;;;;;;;12.50;99.90;;;12.06;100.00;97040.91;5026052;28;1932;-77
2023/10/22 09:41:26;;;;;;;;;;;12.70;99.90;;;12.18;100.00;97031.59;5023485;28;1666;-76
2023/10/22 09:44:00;;;;;;;;;;;12.90;99.90;;;11.72;100.00;97060.13;5040243;28;1424;-75
2023/10/22 09:46:33;;;;;;;;;;;12.60;99.90;;;11.87;100.00;97046.31;5023760;28;1658;-74
2023/10/22 09:49:03;;;;;;;;;;;12.70;99.90;;;12.06;100.00;97063.50;5042492;28;1477;-76
2023/10/22 09:51:34;;;;;;;;;;;12.80;99.90;;;12.29;100.00;97047.41;5022646;28;1459;-76
2023/10/22 09:54:05;;;;;;;;;;;12.90;99.90;;;12.58;100.00;97067.47;5039122;28;1526;-75
2023/10/22 09:56:53;;;;;;;;;;;13.00;99.90;;;12.68;100.00;97073.78;5042686;28;1945;-73
2023/10/22 09:59:22;;;;;;;;;;;13.20;99.90;;;12.80;100.00;97051.41;5031405;28;1422;-75
2023/10/22 10:01:50;;;;;;;;;;;13.30;99.90;;;12.67;100.00;97064.31;5010694;28;1398;-74
2023/10/22 10:04:19;;;;;;;;;;;13.40;99.90;;;12.82;100.00;97081.63;5022507;28;1638;-73
2023/10/22 10:06:47;;;;;;;;;;;13.40;99.90;;;12.68;100.00;97061.63;5037241;28;1456;-76
2023/10/22 10:09:14;;;;;;;;;;;13.40;99.90;;;12.65;100.00;97064.38;5014040;28;1597;-76
2023/10/22 10:11:41;;;;;;;;;;;13.30;99.90;;;12.60;100.00;97076.03;5022776;28;1436;-76
2023/10/22 10:14:32;;;;;;;;;;;13.20;99.90;;;12.86;100.00;97067.47;5026340;28;1163;-76
2023/10/22 10:17:02;;;;;;;;;;;13.30;99.90;;;12.92;100.00;97067.13;5030358;28;1926;-76
2023/10/22 10:19:29;;;;;;;;;;;13.40;99.90;;;12.69;100.00;97067.66;5040865;28;1352;-77
2023/10/22 10:21:56;;;;;;;;;;;13.40;99.90;;;12.38;100.00;97084.22;5022878;28;1684;-75
2023/10/22 10:24:25;;;;;;;;;;;13.30;99.90;;;12.59;100.00;97088.22;5024716;28;2120;-76
2023/10/22 10:27:12;;;;;;;;;;;13.30;99.90;;;12.69;100.00;97088.50;5037169;28;1795;-75
2023/10/22 10:29:40;;;;;;;;;;;13.40;99.90;;;12.71;100.00;97091.84;5040494;28;1851;-76
2023/10/22 10:32:12;;;;;;;;;;;13.40;99.90;;;12.71;100.00;97097.06;5041664;28;1397;-74
2023/10/22 10:34:46;;;;;;;;;;;13.30;99.90;;;12.63;100.00;97087.06;5026462;28;1373;-75
2023/10/22 10:37:20;;;;;;;;;;;13.40;99.90;;;12.91;100.00;97093.28;5041821;28;1999;-76
2023/10/22 10:39:48;;;;;;;;;;;13.50;99.90;;;12.88;100.00;97088.22;5022717;28;1643;-72
2023/10/22 10:42:30;;;;;;;;;;;13.50;99.90;;;12.88;100.00;97083.84;5041408;28;1681;-77
2023/10/22 10:45:03;;;;;;;;;;;13.70;99.90;;;13.04;100.00;97088.16;5038260;28;1823;-75
2023/10/22 10:47:31;;;;;;;;;;;13.70;99.90;;;13.10;100.00;97075.59;5039477;28;1475;-73
2023/10/22 10:49:59;;;;;;;;;;;13.80;99.90;;;13.28;100.00;97080.66;5024171;28;1559;-74
2023/10/22 10:52:26;;;;;;;;;;;13.70;99.90;;;13.36;100.00;97087.09;5038103;28;1871;-73
2023/10/22 10:55:23;;;;;;;;;;;13.80;99.90;;;13.19;100.00;97082.84;5025142;28;1468;-75
2023/10/22 10:57:53;;;;;;;;;;;13.90;99.90;;;13.51;100.00;97082.66;5028658;28;1609;-74
2023/10/22 11:00:28;;;;;;;;;;;13.90;99.90;;;13.76;100.00;97078.53;5024596;28;1470;-74
2023/10/22 11:02:58;;;;;;;;;;;14.00;99.90;;;13.34;100.00;97080.25;5040869;28;1484;-75
2023/10/22 11:05:32;;;;;;;;;;;14.10;99.90;;;13.50;100.00;97081.00;5026158;28;1415;-74
2023/10/22 11:08:00;;;;;;;;;;;14.00;99.90;;;13.17;100.00;97076.06;5038659;28;1428;-74
2023/10/22 11:10:28;;;;;;;;;;;13.90;99.90;;;13.09;100.00;97091.31;5041374;28;1433;-75
2023/10/22 11:13:02;;;;;;;;;;;13.70;99.90;;;13.10;100.00;97078.19;5039414;28;1562;-76
2023/10/22 11:15:37;;;;;;;;;;;13.80;99.90;;;13.58;100.00;97081.34;5006531;28;1985;-72
2023/10/22 11:18:12;;;;;;;;;;;14.00;99.90;;;13.44;100.00;97078.78;5023987;28;1374;-74
2023/10/22 11:20:40;;;;;;;;;;;13.90;99.90;;;13.68;100.00;97084.22;5038056;28;1784;-73
2023/10/22 11:23:18;;;;;;;;;;;13.90;99.90;;;13.41;100.00;97078.97;5036865;28;1783;-75
2023/10/22 11:25:45;;;;;;;;;;;14.00;99.90;;;13.26;100.00;97069.44;5037059;28;1429;-75
2023/10/22 11:28:13;;;;;;;;;;;13.90;99.90;;;13.46;100.00;97082.13;5023830;28;1603;-75
2023/10/22 11:30:41;;;;;;;;;;;13.80;99.90;;;13.57;100.00;97081.44;5007583;28;1563;-74